Time;durP1;ratioP1;P1;durP2;ratioP2;P2;SDS_P1;SDS_P2;PMS_P1;PMS_P2;Temp;Humidity;BMP_temperature;BMP_pressure;BME280_temperature;BME280_humidity;BME280_pressure;Samples;Min_cycle;Max_cycle;Signal;HPM_P1;HPM_P2
2023/07/02 00:00:54;;;;;;;5.93;4.03;;;;;;;;;;5076492;28;20488;-76
2023/07/02 00:03:22;;;;;;;4.63;3.77;;;;;;;;;;5076713;28;20795;-76
2023/07/02 00:05:50;;;;;;;4.67;4.27;;;;;;;;;;5076431;28;20435;-76
2023/07/02 00:08:19;;;;;;;7.57;4.50;;;;;;;;;;5076414;28;20487;-76
2023/07/02 00:10:46;;;;;;;6.90;3.97;;;;;;;;;;5076240;28;20990;-76
2023/07/02 00:13:13;;;;;;;5.63;4.60;;;;;;;;;;5076041;28;20454;-76
2023/07/02 00:15:40;;;;;;;5.60;4.30;;;;;;;;;;5076154;28;20956;-76
2023/07/02 00:18:07;;;;;;;8.20;4.00;;;;;;;;;;5075991;28;20490;-76
2023/07/02 00:20:37;;;;;;;6.53;5.10;;;;;;;;;;5076010;28;20840;-76
2023/07/02 00:23:06;;;;;;;5.80;5.10;;;;;;;;;;5076225;28;20457;-76
2023/07/02 00:25:34;;;;;;;7.23;5.80;;;;;;;;;;5075736;28;20467;-76
2023/07/02 00:28:01;;;;;;;6.57;5.33;;;;;;;;;;5075770;28;20451;-76
2023/07/02 00:30:29;;;;;;;17.27;5.93;;;;;;;;;;5075784;28;20474;-76
2023/07/02 00:32:56;;;;;;;8.70;5.63;;;;;;;;;;5075866;28;20811;-76
2023/07/02 00:35:23;;;;;;;7.07;6.03;;;;;;;;;;5075765;28;20452;-76
2023/07/02 00:37:50;;;;;;;6.70;6.00;;;;;;;;;;5075564;28;20461;-76
2023/07/02 00:40:17;;;;;;;7.27;6.53;;;;;;;;;;5075520;28;20474;-76
2023/07/02 00:42:46;;;;;;;8.07;5.67;;;;;;;;;;5075651;28;20453;-76
2023/07/02 00:45:13;;;;;;;6.40;5.80;;;;;;;;;;5075785;28;20970;-76
2023/07/02 00:47:40;;;;;;;10.97;7.10;;;;;;;;;;5075719;28;20455;-76
2023/07/02 00:50:09;;;;;;;5.90;5.40;;;;;;;;;;5075604;28;21032;-75
2023/07/02 00:52:36;;;;;;;8.97;6.00;;;;;;;;;;5075692;28;20456;-76
2023/07/02 00:55:03;;;;;;;7.97;5.40;;;;;;;;;;5075429;28;20990;-76
2023/07/02 00:57:30;;;;;;;6.47;5.87;;;;;;;;;;5075081;28;20456;-76
2023/07/02 01:00:00;;;;;;;8.90;6.70;;;;;;;;;;5075203;28;20513;-76
2023/07/02 01:02:29;;;;;;;6.30;5.70;;;;;;;;;;5074142;28;20459;-76
2023/07/02 01:04:59;;;;;;;10.00;5.93;;;;;;;;;;5075282;28;20897;-76
2023/07/02 01:07:26;;;;;;;9.27;5.20;;;;;;;;;;5075150;28;20458;-76
2023/07/02 01:09:53;;;;;;;10.13;6.13;;;;;;;;;;5075050;28;20464;-76
2023/07/02 01:12:22;;;;;;;6.40;4.80;;;;;;;;;;5075065;28;20452;-76
2023/07/02 01:14:51;;;;;;;7.53;6.07;;;;;;;;;;5074949;28;20463;-76
2023/07/02 01:17:19;;;;;;;8.33;6.07;;;;;;;;;;5074805;28;20463;-75
2023/07/02 01:19:51;;;;;;;6.37;5.77;;;;;;;;;;5074757;28;20483;-76
2023/07/02 01:22:19;;;;;;;5.93;5.43;;;;;;;;;;5074795;28;20495;-76
2023/07/02 01:24:47;;;;;;;5.20;4.57;;;;;;;;;;5074454;28;20456;-75
2023/07/02 01:27:15;;;;;;;7.53;5.67;;;;;;;;;;5074605;28;20544;-76
2023/07/02 01:29:44;;;;;;;5.73;5.13;;;;;;;;;;5074490;28;20447;-76
2023/07/02 01:32:12;;;;;;;7.57;4.90;;;;;;;;;;5074755;28;20450;-76
2023/07/02 01:34:39;;;;;;;5.90;5.30;;;;;;;;;;5074412;28;20455;-76
2023/07/02 01:37:09;;;;;;;13.03;6.50;;;;;;;;;;5074565;28;20456;-76
2023/07/02 01:39:36;;;;;;;5.83;5.30;;;;;;;;;;5074379;28;20582;-76
2023/07/02 01:42:10;;;;;;;5.97;4.77;;;;;;;;;;5074268;28;20463;-76
2023/07/02 01:44:37;;;;;;;5.33;4.83;;;;;;;;;;5074264;28;20451;-76
2023/07/02 01:47:04;;;;;;;5.73;4.80;;;;;;;;;;5074249;28;20801;-76
2023/07/02 01:49:32;;;;;;;4.97;4.43;;;;;;;;;;5074093;28;20929;-76
2023/07/02 01:51:59;;;;;;;9.37;4.70;;;;;;;;;;5074326;28;20890;-76
2023/07/02 01:54:28;;;;;;;8.77;4.63;;;;;;;;;;5074047;28;20467;-76
2023/07/02 01:56:56;;;;;;;5.27;4.77;;;;;;;;;;5073958;28;20463;-76
2023/07/02 01:59:23;;;;;;;5.20;4.70;;;;;;;;;;5073917;28;20571;-76
2023/07/02 02:01:50;;;;;;;5.47;4.97;;;;;;;;;;5073983;28;20464;-76
2023/07/02 02:04:17;;;;;;;5.77;4.67;;;;;;;;;;5073975;28;20474;-76
2023/07/02 02:06:45;;;;;;;5.53;4.80;;;;;;;;;;5074110;28;20463;-76
2023/07/02 02:09:12;;;;;;;5.97;4.40;;;;;;;;;;5073850;28;20449;-76
2023/07/02 02:11:41;;;;;;;8.63;4.83;;;;;;;;;;5073680;28;20475;-76
2023/07/02 02:14:08;;;;;;;5.33;4.80;;;;;;;;;;5073502;28;20460;-76
2023/07/02 02:16:35;;;;;;;5.77;4.30;;;;;;;;;;5073573;28;20464;-76
2023/07/02 02:19:03;;;;;;;5.27;4.27;;;;;;;;;;5073510;28;21026;-76
2023/07/02 02:21:30;;;;;;;6.67;5.17;;;;;;;;;;5073621;28;20471;-76
2023/07/02 02:23:57;;;;;;;5.63;4.40;;;;;;;;;;5073205;28;20458;-76
2023/07/02 02:26:25;;;;;;;7.00;4.97;;;;;;;;;;5073514;28;20452;-76
2023/07/02 02:28:53;;;;;;;7.20;5.47;;;;;;;;;;5073385;28;20447;-76
2023/07/02 02:31:20;;;;;;;9.13;4.60;;;;;;;;;;5073454;28;20988;-76
2023/07/02 02:33:48;;;;;;;6.30;5.70;;;;;;;;;;5073511;28;20958;-76
2023/07/02 02:36:15;;;;;;;5.17;4.67;;;;;;;;;;5073388;28;20478;-76
2023/07/02 02:38:42;;;;;;;4.83;4.30;;;;;;;;;;5072981;28;20491;-76
2023/07/02 02:41:09;;;;;;;4.73;4.27;;;;;;;;;;5073181;28;20813;-76
2023/07/02 02:43:37;;;;;;;5.03;4.57;;;;;;;;;;5073095;28;20464;-76
2023/07/02 02:46:05;;;;;;;5.13;4.63;;;;;;;;;;5073266;28;20498;-76
2023/07/02 02:48:32;;;;;;;5.13;4.07;;;;;;;;;;5073020;28;20940;-76
2023/07/02 02:51:00;;;;;;;7.87;4.50;;;;;;;;;;5073172;28;20468;-76
2023/07/02 02:53:27;;;;;;;5.80;3.60;;;;;;;;;;5073083;28;20447;-76
2023/07/02 02:55:54;;;;;;;5.77;4.17;;;;;;;;;;5073100;28;20456;-76
2023/07/02 02:58:22;;;;;;;5.03;4.10;;;;;;;;;;5073103;28;21017;-76
2023/07/02 03:00:49;;;;;;;4.27;3.43;;;;;;;;;;5072932;28;20982;-76
2023/07/02 03:03:20;;;;;;;8.57;4.40;;;;;;;;;;5072827;28;20457;-76
2023/07/02 03:05:48;;;;;;;5.60;4.30;;;;;;;;;;5072901;28;20467;-76
2023/07/02 03:08:15;;;;;;;5.70;3.93;;;;;;;;;;5072660;28;20455;-76
2023/07/02 03:10:43;;;;;;;5.73;3.97;;;;;;;;;;5072666;28;20472;-76
2023/07/02 03:13:10;;;;;;;4.00;3.47;;;;;;;;;;5072720;28;20456;-76
2023/07/02 03:15:37;;;;;;;4.07;3.67;;;;;;;;;;5072844;28;20873;-76
2023/07/02 03:18:04;;;;;;;7.33;3.83;;;;;;;;;;5072610;28;20448;-76
2023/07/02 03:20:32;;;;;;;8.53;3.53;;;;;;;;;;5071740;28;20523;-75
2023/07/02 03:23:00;;;;;;;4.00;3.60;;;;;;;;;;5071613;28;20451;-75
2023/07/02 03:25:27;;;;;;;3.87;3.30;;;;;;;;;;5071003;28;20474;-75
2023/07/02 03:27:54;;;;;;;3.83;3.53;;;;;;;;;;5071871;28;20440;-75
2023/07/02 03:30:21;;;;;;;4.00;3.60;;;;;;;;;;5071585;28;20478;-75
2023/07/02 03:32:48;;;;;;;4.00;3.50;;;;;;;;;;5071857;28;20458;-75
2023/07/02 03:35:16;;;;;;;3.87;3.30;;;;;;;;;;5071569;28;20448;-75
2023/07/02 03:37:45;;;;;;;5.70;3.57;;;;;;;;;;5071568;28;20456;-75
2023/07/02 03:40:13;;;;;;;3.97;3.50;;;;;;;;;;5071525;28;20491;-75
2023/07/02 03:42:40;;;;;;;3.60;3.30;;;;;;;;;;5071492;28;20463;-75
2023/07/02 03:45:07;;;;;;;3.57;2.80;;;;;;;;;;5071600;28;20454;-75
2023/07/02 03:47:34;;;;;;;4.17;2.50;;;;;;;;;;5071442;28;20971;-75
2023/07/02 03:50:02;;;;;;;6.50;3.90;;;;;;;;;;5071480;28;20479;-75
2023/07/02 03:52:29;;;;;;;3.30;3.00;;;;;;;;;;5071386;28;20962;-76
2023/07/02 03:54:57;;;;;;;3.30;2.53;;;;;;;;;;5071716;28;20458;-75
2023/07/02 03:57:26;;;;;;;3.17;2.73;;;;;;;;;;5071211;28;20498;-75
2023/07/02 03:59:53;;;;;;;3.00;2.70;;;;;;;;;;5071306;28;20938;-76
2023/07/02 04:02:20;;;;;;;3.53;3.07;;;;;;;;;;5071388;28;20460;-76
2023/07/02 04:04:47;;;;;;;2.50;2.30;;;;;;;;;;5071444;28;20471;-76
2023/07/02 04:07:15;;;;;;;3.33;2.63;;;;;;;;;;5071438;28;20451;-76
2023/07/02 04:09:42;;;;;;;2.93;2.60;;;;;;;;;;5071445;28;20921;-75
2023/07/02 04:12:11;;;;;;;7.97;3.40;;;;;;;;;;5071333;28;20448;-76
2023/07/02 04:14:38;;;;;;;3.60;3.30;;;;;;;;;;5071244;28;20899;-76
2023/07/02 04:17:06;;;;;;;2.60;2.30;;;;;;;;;;5071392;28;20455;-75
2023/07/02 04:19:33;;;;;;;3.37;2.80;;;;;;;;;;5071060;28;20505;-75
2023/07/02 04:22:00;;;;;;;5.80;2.63;;;;;;;;;;5071194;28;20467;-75
2023/07/02 04:24:27;;;;;;;2.90;2.33;;;;;;;;;;5071073;28;20971;-76
2023/07/02 04:26:54;;;;;;;3.83;2.93;;;;;;;;;;5071028;28;20459;-75
2023/07/02 04:29:23;;;;;;;3.17;2.30;;;;;;;;;;5071183;28;20480;-75
2023/07/02 04:31:50;;;;;;;2.83;2.40;;;;;;;;;;5071018;28;20467;-75
2023/07/02 04:34:17;;;;;;;4.30;2.60;;;;;;;;;;5070935;28;20451;-75
2023/07/02 04:36:44;;;;;;;3.70;2.20;;;;;;;;;;5072143;28;20793;-75
2023/07/02 04:39:11;;;;;;;3.67;2.57;;;;;;;;;;5074488;28;20801;-76
2023/07/02 04:41:39;;;;;;;4.10;2.83;;;;;;;;;;5074393;28;20562;-76
2023/07/02 04:44:06;;;;;;;4.07;2.80;;;;;;;;;;5074496;28;20452;-75
2023/07/02 04:46:34;;;;;;;3.87;3.20;;;;;;;;;;5074864;28;20448;-76
2023/07/02 04:49:01;;;;;;;4.00;3.60;;;;;;;;;;5074221;28;20959;-75
2023/07/02 04:51:28;;;;;;;7.57;2.60;;;;;;;;;;5074357;28;20471;-76
2023/07/02 04:53:56;;;;;;;5.10;2.97;;;;;;;;;;5074353;28;20458;-76
2023/07/02 04:56:23;;;;;;;5.63;3.00;;;;;;;;;;5074332;28;20512;-76
2023/07/02 04:58:50;;;;;;;3.13;2.83;;;;;;;;;;5074240;28;20447;-76
2023/07/02 05:01:17;;;;;;;3.67;3.10;;;;;;;;;;5073944;28;20502;-76
2023/07/02 05:03:45;;;;;;;3.60;3.17;;;;;;;;;;5074367;28;20464;-76
2023/07/02 05:06:12;;;;;;;7.13;2.70;;;;;;;;;;5074287;28;20463;-76
2023/07/02 05:08:39;;;;;;;2.97;2.63;;;;;;;;;;5074070;28;20455;-76
2023/07/02 05:11:07;;;;;;;3.17;2.53;;;;;;;;;;5074027;28;20475;-76
2023/07/02 05:13:34;;;;;;;3.13;2.80;;;;;;;;;;5074164;28;20464;-76
2023/07/02 05:16:01;;;;;;;3.63;3.10;;;;;;;;;;5073953;28;20458;-76
2023/07/02 05:18:28;;;;;;;3.60;2.57;;;;;;;;;;5073818;28;20974;-76
2023/07/02 05:20:57;;;;;;;3.97;2.50;;;;;;;;;;5073851;28;20498;-76
2023/07/02 05:23:24;;;;;;;4.83;2.83;;;;;;;;;;5073932;28;20447;-76
2023/07/02 05:25:51;;;;;;;4.93;2.70;;;;;;;;;;5073522;28;20920;-76
2023/07/02 05:28:18;;;;;;;3.63;2.60;;;;;;;;;;5073636;28;20452;-76
2023/07/02 05:30:45;;;;;;;2.97;2.77;;;;;;;;;;5073596;28;20468;-76
2023/07/02 05:33:13;;;;;;;6.13;2.60;;;;;;;;;;5073580;28;20452;-76
2023/07/02 05:35:40;;;;;;;3.50;2.63;;;;;;;;;;5073776;28;20475;-76
2023/07/02 05:38:08;;;;;;;4.20;2.37;;;;;;;;;;5073765;28;20461;-75
2023/07/02 05:40:35;;;;;;;3.00;2.53;;;;;;;;;;5073433;28;20496;-76
2023/07/02 05:43:03;;;;;;;5.00;2.97;;;;;;;;;;5073770;28;20452;-76
2023/07/02 05:45:30;;;;;;;5.00;2.77;;;;;;;;;;5073924;28;20895;-76
2023/07/02 05:47:57;;;;;;;4.67;2.80;;;;;;;;;;5073261;28;20436;-76
2023/07/02 05:50:24;;;;;;;4.70;2.53;;;;;;;;;;5073668;28;20472;-76
2023/07/02 05:52:52;;;;;;;3.50;2.60;;;;;;;;;;5074029;28;20550;-74
2023/07/02 05:55:20;;;;;;;3.90;3.20;;;;;;;;;;5073703;28;20432;-74
2023/07/02 05:57:47;;;;;;;3.40;2.80;;;;;;;;;;5073434;28;20459;-74
2023/07/02 06:00:15;;;;;;;5.33;2.70;;;;;;;;;;5073674;28;20502;-74
2023/07/02 06:02:42;;;;;;;4.33;2.73;;;;;;;;;;5073752;28;20534;-74
2023/07/02 06:05:10;;;;;;;6.70;2.67;;;;;;;;;;5073655;28;20802;-74
2023/07/02 06:07:37;;;;;;;3.37;2.20;;;;;;;;;;5073356;28;20455;-74
2023/07/02 06:10:04;;;;;;;3.30;2.67;;;;;;;;;;5073675;28;20472;-74
2023/07/02 06:12:32;;;;;;;4.67;2.93;;;;;;;;;;5073469;28;20455;-74
2023/07/02 06:14:59;;;;;;;3.03;2.73;;;;;;;;;;5073210;28;20470;-74
2023/07/02 06:17:27;;;;;;;7.57;3.27;;;;;;;;;;5073532;28;20448;-74
2023/07/02 06:19:54;;;;;;;2.80;2.60;;;;;;;;;;5072948;28;20499;-74
2023/07/02 06:22:21;;;;;;;7.43;2.90;;;;;;;;;;5073275;28;20454;-74
2023/07/02 06:24:48;;;;;;;2.93;2.63;;;;;;;;;;5073059;28;20820;-73
2023/07/02 06:27:15;;;;;;;4.63;3.97;;;;;;;;;;5073229;28;20458;-74
2023/07/02 06:29:44;;;;;;;4.10;2.60;;;;;;;;;;5073049;28;20463;-74
2023/07/02 06:32:11;;;;;;;5.50;3.03;;;;;;;;;;5073090;28;20809;-73
2023/07/02 06:34:38;;;;;;;4.07;2.40;;;;;;;;;;5072673;28;20460;-73
2023/07/02 06:37:05;;;;;;;4.93;2.60;;;;;;;;;;5072641;28;20448;-73
2023/07/02 06:39:32;;;;;;;3.30;2.50;;;;;;;;;;5069587;28;20444;-73
2023/07/02 06:41:59;;;;;;;5.33;2.80;;;;;;;;;;5070172;28;20487;-73
2023/07/02 06:44:26;;;;;;;3.93;2.97;;;;;;;;;;5071248;28;20486;-73
2023/07/02 06:46:55;;;;;;;3.23;2.50;;;;;;;;;;5071255;28;20456;-73
2023/07/02 06:49:22;;;;;;;2.30;2.10;;;;;;;;;;5071109;28;20462;-73
2023/07/02 06:51:49;;;;;;;4.50;2.90;;;;;;;;;;5071231;28;20471;-73
2023/07/02 06:54:16;;;;;;;4.90;2.53;;;;;;;;;;5071445;28;20447;-74
2023/07/02 06:56:43;;;;;;;2.77;2.47;;;;;;;;;;5071171;28;20468;-73
2023/07/02 06:59:11;;;;;;;3.30;2.80;;;;;;;;;;5070804;28;20465;-73
2023/07/02 07:01:38;;;;;;;4.03;2.70;;;;;;;;;;5070537;28;20487;-73
2023/07/02 07:04:06;;;;;;;5.47;2.60;;;;;;;;;;5071193;28;20943;-73
2023/07/02 07:06:34;;;;;;;2.93;2.50;;;;;;;;;;5071329;28;20819;-73
2023/07/02 07:09:01;;;;;;;3.70;2.33;;;;;;;;;;5071230;28;20472;-73
2023/07/02 07:11:28;;;;;;;2.77;2.30;;;;;;;;;;5071235;28;20468;-73
2023/07/02 07:13:55;;;;;;;4.10;2.60;;;;;;;;;;5071135;28;20554;-73
2023/07/02 07:16:22;;;;;;;4.00;2.33;;;;;;;;;;5071157;28;20451;-73
2023/07/02 07:18:50;;;;;;;4.03;2.30;;;;;;;;;;5070946;28;20454;-73
2023/07/02 07:21:19;;;;;;;4.07;3.13;;;;;;;;;;5070914;28;20487;-73
2023/07/02 07:23:49;;;;;;;3.57;2.60;;;;;;;;;;5071221;28;20456;-74
2023/07/02 07:26:16;;;;;;;3.50;2.30;;;;;;;;;;5071358;28;20897;-73
2023/07/02 07:28:43;;;;;;;2.73;2.20;;;;;;;;;;5071378;28;20456;-73
2023/07/02 07:31:10;;;;;;;2.83;2.50;;;;;;;;;;5070671;28;20474;-73
2023/07/02 07:33:37;;;;;;;3.40;2.30;;;;;;;;;;5070902;28;20459;-73
2023/07/02 07:36:04;;;;;;;3.80;2.87;;;;;;;;;;5071108;28;20471;-73
2023/07/02 07:38:33;;;;;;;2.97;2.60;;;;;;;;;;5071140;28;20467;-73
2023/07/02 07:41:00;;;;;;;3.30;2.67;;;;;;;;;;5070943;28;20951;-73
2023/07/02 07:43:27;;;;;;;5.13;3.20;;;;;;;;;;5071103;28;20466;-73
2023/07/02 07:45:54;;;;;;;3.37;3.07;;;;;;;;;;5070717;28;20458;-73
2023/07/02 07:48:22;;;;;;;5.63;2.77;;;;;;;;;;5071079;28;20490;-73
2023/07/02 07:50:49;;;;;;;4.00;2.90;;;;;;;;;;5070672;28;20577;-75
2023/07/02 07:53:16;;;;;;;3.13;2.83;;;;;;;;;;5070032;28;20811;-75
2023/07/02 07:55:45;;;;;;;3.27;2.70;;;;;;;;;;5070039;28;20460;-74
2023/07/02 07:58:12;;;;;;;4.80;2.80;;;;;;;;;;5070162;28;20505;-74
2023/07/02 08:00:39;;;;;;;4.00;2.50;;;;;;;;;;5069685;28;20498;-75
2023/07/02 08:03:06;;;;;;;3.53;2.70;;;;;;;;;;5070338;28;20455;-75
2023/07/02 08:05:33;;;;;;;6.73;3.87;;;;;;;;;;5070170;28;20458;-75
2023/07/02 08:08:00;;;;;;;3.40;3.10;;;;;;;;;;5070057;28;20483;-75
2023/07/02 08:10:27;;;;;;;4.40;2.70;;;;;;;;;;5070775;28;20475;-74
2023/07/02 08:12:56;;;;;;;3.63;2.83;;;;;;;;;;5073939;28;20822;-74
2023/07/02 08:15:23;;;;;;;6.10;3.33;;;;;;;;;;5073555;28;20964;-74
2023/07/02 08:17:54;;;;;;;6.17;3.57;;;;;;;;;;5073949;28;20504;-75
2023/07/02 08:20:21;;;;;;;4.10;3.23;;;;;;;;;;5073522;28;20474;-75
2023/07/02 08:22:49;;;;;;;5.53;2.53;;;;;;;;;;5073719;28;20908;-74
2023/07/02 08:25:17;;;;;;;5.10;2.67;;;;;;;;;;5073357;28;20873;-75
2023/07/02 08:27:44;;;;;;;8.30;3.77;;;;;;;;;;5073494;28;20463;-75
2023/07/02 08:30:13;;;;;;;7.93;4.13;;;;;;;;;;5073338;28;20996;-75
2023/07/02 08:32:40;;;;;;;6.13;2.90;;;;;;;;;;5072471;28;20463;-75
2023/07/02 08:35:07;;;;;;;5.47;2.73;;;;;;;;;;5053308;28;20467;-75
2023/07/02 08:37:34;;;;;;;5.07;3.00;;;;;;;;;;5052951;28;20452;-75
2023/07/02 08:40:01;;;;;;;4.50;2.57;;;;;;;;;;5054414;28;21038;-75
2023/07/02 08:42:29;;;;;;;7.73;6.10;;;;;;;;;;5053747;28;20524;-75
2023/07/02 08:44:57;;;;;;;4.80;3.70;;;;;;;;;;5054748;28;20449;-75
2023/07/02 08:47:26;;;;;;;4.50;2.60;;;;;;;;;;5053948;28;20452;-75
2023/07/02 08:49:53;;;;;;;4.00;3.07;;;;;;;;;;5054490;28;20580;-74
2023/07/02 08:52:20;;;;;;;3.87;3.30;;;;;;;;;;5054223;28;20452;-73
2023/07/02 08:54:47;;;;;;;4.97;2.57;;;;;;;;;;5054512;28;20451;-73
2023/07/02 08:57:14;;;;;;;6.30;3.70;;;;;;;;;;5054042;28;20483;-73
2023/07/02 08:59:41;;;;;;;4.50;2.97;;;;;;;;;;5054231;28;20483;-73
2023/07/02 09:02:08;;;;;;;5.57;3.00;;;;;;;;;;5054016;28;20491;-73
2023/07/02 09:04:37;;;;;;;4.57;3.13;;;;;;;;;;5053999;28;20492;-73
2023/07/02 09:07:05;;;;;;;6.23;3.73;;;;;;;;;;5054101;28;20441;-73
2023/07/02 09:09:32;;;;;;;4.17;3.40;;;;;;;;;;5053662;28;20448;-73
2023/07/02 09:11:59;;;;;;;6.10;3.90;;;;;;;;;;5053905;28;20956;-73
2023/07/02 09:14:27;;;;;;;5.67;3.40;;;;;;;;;;5053773;28;20464;-73
2023/07/02 09:17:04;;;;;;;5.00;3.50;;;;;;;;;;5053789;28;20933;-73
2023/07/02 09:19:32;;;;;;;5.07;3.73;;;;;;;;;;5053609;28;20500;-73
2023/07/02 09:22:01;;;;;;;5.10;3.93;;;;;;;;;;5052952;28;20491;-73
2023/07/02 09:24:28;;;;;;;5.93;4.43;;;;;;;;;;5053326;28;20945;-73
2023/07/02 09:26:56;;;;;;;10.53;5.80;;;;;;;;;;5053732;28;20555;-73
2023/07/02 09:29:24;;;;;;;7.33;4.07;;;;;;;;;;5053732;28;20452;-73
2023/07/02 09:31:52;;;;;;;4.23;3.20;;;;;;;;;;5053341;28;20473;-73
2023/07/02 09:34:19;;;;;;;6.20;3.83;;;;;;;;;;5053615;28;20448;-73
2023/07/02 09:36:46;;;;;;;3.60;3.07;;;;;;;;;;5053487;28;20448;-76
2023/07/02 09:39:21;;;;;;;4.50;3.13;;;;;;;;;;5053831;28;20456;-73
2023/07/02 09:41:50;;;;;;;4.23;3.20;;;;;;;;;;5053706;28;20843;-73
2023/07/02 09:44:18;;;;;;;3.30;2.20;;;;;;;;;;5053618;28;20544;-73
2023/07/02 09:46:47;;;;;;;2.83;2.50;;;;;;;;;;5053788;28;20499;-73
2023/07/02 09:49:16;;;;;;;3.20;2.87;;;;;;;;;;5053516;28;20894;-73
2023/07/02 09:51:43;;;;;;;3.30;2.60;;;;;;;;;;5053547;28;20472;-72
2023/07/02 09:54:12;;;;;;;4.30;3.17;;;;;;;;;;5053653;28;20982;-72
2023/07/02 09:56:41;;;;;;;3.10;2.40;;;;;;;;;;5053690;28;20818;-72
2023/07/02 09:59:08;;;;;;;3.60;2.87;;;;;;;;;;5053636;28;20455;-72
2023/07/02 10:01:35;;;;;;;3.03;2.77;;;;;;;;;;5053472;28;20512;-72
2023/07/02 10:04:11;;;;;;;7.40;3.60;;;;;;;;;;5053244;28;20456;-72
2023/07/02 10:06:45;;;;;;;4.07;3.67;;;;;;;;;;5052983;28;20452;-72
2023/07/02 10:09:12;;;;;;;5.07;3.70;;;;;;;;;;5053390;28;20518;-72
2023/07/02 10:11:41;;;;;;;5.33;4.80;;;;;;;;;;5053203;28;20473;-72
2023/07/02 10:14:08;;;;;;;3.80;3.50;;;;;;;;;;5053001;28;20472;-72
2023/07/02 10:16:35;;;;;;;4.00;3.60;;;;;;;;;;5053056;28;20911;-72
2023/07/02 10:19:11;;;;;;;4.30;3.90;;;;;;;;;;5052906;28;20456;-72
2023/07/02 10:21:39;;;;;;;4.23;3.83;;;;;;;;;;5052687;28;20496;-72
2023/07/02 10:24:13;;;;;;;4.03;3.70;;;;;;;;;;5052591;28;20820;-71
2023/07/02 10:26:53;;;;;;;4.20;3.80;;;;;;;;;;5052873;28;20533;-71
2023/07/02 10:29:20;;;;;;;3.80;3.40;;;;;;;;;;5052970;28;20502;-72
2023/07/02 10:31:50;;;;;;;5.80;3.90;;;;;;;;;;5052917;28;20534;-72
2023/07/02 10:34:17;;;;;;;3.47;3.10;;;;;;;;;;5052957;28;20960;-72
2023/07/02 10:36:44;;;;;;;5.47;3.20;;;;;;;;;;5052377;28;20901;-72
2023/07/02 10:39:11;;;;;;;3.37;3.07;;;;;;;;;;5052659;28;20453;-72
2023/07/02 10:41:38;;;;;;;3.07;2.77;;;;;;;;;;5052184;28;20515;-72
2023/07/02 10:44:11;;;;;;;3.70;2.43;;;;;;;;;;5052606;28;20452;-72
2023/07/02 10:46:44;;;;;;;2.73;2.53;;;;;;;;;;5052309;28;20448;-72
2023/07/02 10:49:12;;;;;;;4.13;2.80;;;;;;;;;;5052559;28;20452;-72
2023/07/02 10:51:39;;;;;;;3.10;2.40;;;;;;;;;;5052607;28;21027;-72
2023/07/02 10:54:06;;;;;;;2.53;2.33;;;;;;;;;;5052336;28;20449;-72
2023/07/02 10:56:33;;;;;;;6.50;2.97;;;;;;;;;;5052249;28;20452;-72
2023/07/02 10:59:01;;;;;;;2.90;2.60;;;;;;;;;;5052397;28;20453;-72
2023/07/02 11:01:30;;;;;;;4.23;2.97;;;;;;;;;;5051995;28;20493;-72
2023/07/02 11:03:59;;;;;;;4.40;2.50;;;;;;;;;;5052546;28;20623;-72
2023/07/02 11:06:26;;;;;;;3.23;2.97;;;;;;;;;;5052491;28;20445;-72
2023/07/02 11:08:54;;;;;;;4.37;3.70;;;;;;;;;;5052076;28;20514;-73
2023/07/02 11:11:21;;;;;;;2.70;2.30;;;;;;;;;;5052364;28;20477;-73
2023/07/02 11:13:50;;;;;;;3.10;2.50;;;;;;;;;;5051944;28;20559;-72
2023/07/02 11:16:22;;;;;;;2.30;2.10;;;;;;;;;;5051855;28;20499;-72
2023/07/02 11:18:51;;;;;;;3.53;2.10;;;;;;;;;;5052299;28;20463;-72
2023/07/02 11:21:18;;;;;;;2.00;1.80;;;;;;;;;;5051647;28;20472;-72
2023/07/02 11:23:45;;;;;;;2.33;2.13;;;;;;;;;;5052017;28;20463;-72
2023/07/02 11:26:12;;;;;;;2.70;2.50;;;;;;;;;;5051965;28;20457;-72
2023/07/02 11:28:49;;;;;;;2.50;2.20;;;;;;;;;;5052393;28;20444;-73
2023/07/02 11:31:25;;;;;;;2.77;2.10;;;;;;;;;;5051993;28;20476;-73
2023/07/02 11:33:54;;;;;;;3.67;2.30;;;;;;;;;;5052351;28;20451;-73
2023/07/02 11:36:21;;;;;;;3.33;2.80;;;;;;;;;;5051967;28;20798;-73
2023/07/02 11:38:51;;;;;;;3.70;3.30;;;;;;;;;;5052105;28;20449;-74
2023/07/02 11:41:18;;;;;;;4.80;3.27;;;;;;;;;;5051890;28;20472;-71
2023/07/02 11:43:45;;;;;;;3.60;2.93;;;;;;;;;;5052114;28;20843;-73
2023/07/02 11:46:13;;;;;;;3.87;3.50;;;;;;;;;;5054011;28;20449;-74
2023/07/02 11:48:40;;;;;;;5.27;3.40;;;;;;;;;;5056226;28;20472;-74
2023/07/02 11:51:08;;;;;;;3.80;3.40;;;;;;;;;;5056222;28;20472;-74
2023/07/02 11:53:35;;;;;;;3.60;3.10;;;;;;;;;;5056064;28;20456;-73
2023/07/02 11:56:02;;;;;;;4.33;3.93;;;;;;;;;;5056316;28;20467;-74
2023/07/02 11:58:29;;;;;;;4.73;4.00;;;;;;;;;;5056249;28;20459;-74
2023/07/02 12:00:57;;;;;;;5.00;3.20;;;;;;;;;;5055872;28;20477;-73
2023/07/02 12:03:24;;;;;;;5.50;4.53;;;;;;;;;;5056238;28;20469;-74
2023/07/02 12:05:51;;;;;;;9.50;3.93;;;;;;;;;;5055923;28;20452;-74
2023/07/02 12:08:19;;;;;;;8.23;5.20;;;;;;;;;;5055546;28;20452;-73
2023/07/02 12:10:46;;;;;;;3.90;3.50;;;;;;;;;;5055908;28;20476;-74
2023/07/02 12:13:14;;;;;;;7.10;4.10;;;;;;;;;;5055982;28;20822;-74
2023/07/02 12:15:41;;;;;;;3.73;3.33;;;;;;;;;;5055694;28;20448;-74
2023/07/02 12:18:08;;;;;;;4.87;4.37;;;;;;;;;;5055606;28;20448;-74
2023/07/02 12:20:35;;;;;;;5.23;4.47;;;;;;;;;;5055811;28;20479;-74
2023/07/02 12:23:02;;;;;;;4.83;4.30;;;;;;;;;;5055557;28;20492;-72
2023/07/02 12:25:31;;;;;;;6.30;5.20;;;;;;;;;;5055632;28;20456;-72
2023/07/02 12:27:58;;;;;;;6.33;5.13;;;;;;;;;;5055689;28;20917;-74
2023/07/02 12:30:25;;;;;;;6.20;4.67;;;;;;;;;;5055535;28;20837;-73
2023/07/02 12:32:52;;;;;;;6.37;5.77;;;;;;;;;;5055201;28;20453;-74
2023/07/02 12:35:19;;;;;;;5.47;4.73;;;;;;;;;;5055547;28;20456;-73
2023/07/02 12:37:47;;;;;;;6.60;4.83;;;;;;;;;;5055216;28;20452;-74
2023/07/02 12:40:14;;;;;;;8.57;6.17;;;;;;;;;;5055046;28;20468;-74
2023/07/02 12:42:44;;;;;;;10.87;5.43;;;;;;;;;;5055401;28;20485;-74
2023/07/02 12:45:12;;;;;;;7.70;6.27;;;;;;;;;;5055292;28;20452;-74
2023/07/02 12:47:39;;;;;;;8.03;6.27;;;;;;;;;;5054984;28;20459;-74
2023/07/02 12:50:06;;;;;;;7.27;5.40;;;;;;;;;;5055241;28;20965;-74
2023/07/02 12:52:33;;;;;;;7.83;6.37;;;;;;;;;;5054931;28;20452;-74
2023/07/02 12:55:01;;;;;;;8.77;6.43;;;;;;;;;;5055431;28;20448;-74
2023/07/02 12:57:28;;;;;;;8.37;6.40;;;;;;;;;;5053828;28;20917;-74
2023/07/02 12:59:57;;;;;;;10.17;7.20;;;;;;;;;;5055042;28;20483;-74
2023/07/02 13:02:24;;;;;;;7.37;6.10;;;;;;;;;;5054581;28;20502;-74
2023/07/02 13:04:52;;;;;;;10.00;6.03;;;;;;;;;;5055071;28;20479;-74
2023/07/02 13:07:19;;;;;;;9.03;6.37;;;;;;;;;;5054914;28;20448;-73
2023/07/02 13:09:46;;;;;;;10.83;7.17;;;;;;;;;;5055081;28;20449;-74
2023/07/02 13:12:14;;;;;;;13.47;7.27;;;;;;;;;;5054608;28;20449;-74
2023/07/02 13:14:41;;;;;;;7.63;6.30;;;;;;;;;;5054520;28;20464;-74
2023/07/02 13:17:09;;;;;;;12.90;8.13;;;;;;;;;;5054492;28;20452;-73
2023/07/02 13:19:37;;;;;;;10.20;7.97;;;;;;;;;;5054525;28;20453;-73
2023/07/02 13:22:04;;;;;;;9.70;7.73;;;;;;;;;;5054585;28;20791;-74
2023/07/02 13:24:35;;;;;;;7.87;5.77;;;;;;;;;;5054043;28;20479;-73
2023/07/02 13:27:03;;;;;;;8.50;6.73;;;;;;;;;;5054360;28;20449;-73
2023/07/02 13:29:30;;;;;;;9.40;6.90;;;;;;;;;;5054573;28;20456;-74
2023/07/02 13:31:58;;;;;;;10.87;7.03;;;;;;;;;;5054597;28;20980;-73
2023/07/02 13:34:26;;;;;;;10.80;7.10;;;;;;;;;;5054545;28;20448;-73
2023/07/02 13:36:53;;;;;;;11.73;7.73;;;;;;;;;;5054305;28;20957;-73
2023/07/02 13:39:20;;;;;;;7.93;6.77;;;;;;;;;;5054338;28;20449;-73
2023/07/02 13:41:48;;;;;;;9.23;7.47;;;;;;;;;;5054140;28;20472;-73
2023/07/02 13:44:16;;;;;;;8.03;6.03;;;;;;;;;;5054097;28;20484;-73
2023/07/02 13:46:43;;;;;;;8.97;6.83;;;;;;;;;;5054109;28;20532;-73
2023/07/02 13:49:11;;;;;;;10.10;7.33;;;;;;;;;;5054327;28;20448;-73
2023/07/02 13:51:39;;;;;;;9.80;7.40;;;;;;;;;;5062281;28;20494;-72
2023/07/02 13:54:06;;;;;;;12.10;8.10;;;;;;;;;;5056766;28;20503;-73
2023/07/02 13:56:33;;;;;;;11.50;7.50;;;;;;;;;;5052196;28;20457;-73
2023/07/02 13:59:06;;;;;;;10.13;7.00;;;;;;;;;;5052309;28;20472;-73
2023/07/02 14:01:33;;;;;;;9.70;7.43;;;;;;;;;;5052303;28;20476;-73
2023/07/02 14:04:01;;;;;;;10.00;7.57;;;;;;;;;;5052103;28;20484;-73
2023/07/02 14:06:28;;;;;;;9.47;7.67;;;;;;;;;;5052571;28;20456;-73
2023/07/02 14:08:55;;;;;;;14.10;8.23;;;;;;;;;;5051904;28;20453;-73
2023/07/02 14:11:23;;;;;;;10.87;7.57;;;;;;;;;;5052299;28;20848;-73
2023/07/02 14:13:50;;;;;;;17.03;9.10;;;;;;;;;;5052012;28;20828;-73
2023/07/02 14:16:19;;;;;;;12.10;7.57;;;;;;;;;;5052187;28;20460;-73
2023/07/02 14:18:46;;;;;;;14.37;9.20;;;;;;;;;;5051996;28;20457;-72
2023/07/02 14:21:13;;;;;;;11.07;7.63;;;;;;;;;;5051855;28;20468;-73
2023/07/02 14:23:40;;;;;;;11.53;8.27;;;;;;;;;;5051962;28;20471;-73
2023/07/02 14:26:08;;;;;;;10.30;8.57;;;;;;;;;;5052141;28;20945;-73
2023/07/02 14:28:35;;;;;;;11.80;8.87;;;;;;;;;;5051725;28;20452;-73
2023/07/02 14:31:03;;;;;;;9.13;7.40;;;;;;;;;;5051878;28;20468;-73
2023/07/02 14:33:33;;;;;;;11.93;8.87;;;;;;;;;;5052203;28;20453;-73
2023/07/02 14:36:00;;;;;;;12.07;8.27;;;;;;;;;;5052020;28;20460;-75
2023/07/02 14:38:27;;;;;;;9.47;7.57;;;;;;;;;;5051537;28;20456;-75
2023/07/02 14:40:55;;;;;;;12.57;8.10;;;;;;;;;;5051449;28;20568;-74
2023/07/02 14:43:23;;;;;;;11.77;8.43;;;;;;;;;;5051177;28;20480;-75